Time;durP1;ratioP1;P1;durP2;ratioP2;P2;SDS_P1;SDS_P2;PMS_P1;PMS_P2;Temp;Humidity;BMP_temperature;BMP_pressure;BME280_temperature;BME280_humidity;BME280_pressure;Samples;Min_cycle;Max_cycle;Signal;HPM_P1;HPM_P2
2021/04/02 00:01:57;;;;;;;46.25;22.25;;;15.70;99.90;;;15.61;76.50;101472.94;4153965;28;20022;-76
2021/04/02 00:03:58;;;;;;;37.05;21.02;;;15.70;99.90;;;15.62;76.78;101469.25;4153784;28;20485;-76
2021/04/02 00:06:03;;;;;;;34.60;20.58;;;15.80;99.90;;;15.56;77.39;101471.78;4153934;28;20029;-76
2021/04/02 00:08:05;;;;;;;40.92;23.90;;;15.80;99.90;;;15.48;77.63;101472.63;4152777;28;20026;-76
2021/04/02 00:10:17;;;;;;;37.85;22.63;;;15.70;99.90;;;15.45;78.20;101473.78;4152586;28;20026;-76
2021/04/02 00:12:17;;;;;;;44.25;24.52;;;15.70;99.90;;;15.47;79.31;101481.63;4151667;28;20496;-76
2021/04/02 00:14:18;;;;;;;47.53;25.67;;;15.70;99.90;;;15.42;78.73;101474.09;4153441;28;20033;-76
2021/04/02 00:16:20;;;;;;;36.33;23.15;;;15.70;99.90;;;15.30;79.30;101483.44;4152562;28;20034;-75
2021/04/02 00:18:24;;;;;;;52.15;27.58;;;15.60;99.90;;;15.38;79.32;101480.75;4153548;28;20057;-76
2021/04/02 00:20:25;;;;;;;46.90;26.35;;;15.50;99.90;;;15.37;79.80;101480.94;4152461;28;20085;-76
2021/04/02 00:22:26;;;;;;;44.05;27.45;;;15.60;99.90;;;15.27;80.61;101481.13;4153440;28;20041;-76
2021/04/02 00:24:26;;;;;;;46.83;24.73;;;15.50;99.90;;;15.24;80.18;101488.59;4153866;28;20034;-76
2021/04/02 00:26:27;;;;;;;43.47;26.45;;;15.40;99.90;;;15.20;80.61;101482.78;4153067;28;20029;-76
2021/04/02 00:28:29;;;;;;;52.50;27.02;;;15.40;99.90;;;15.23;80.78;101485.09;4152291;28;20049;-76
2021/04/02 00:30:47;;;;;;;43.65;27.55;;;15.40;99.90;;;15.07;80.96;101476.31;4152212;28;20065;-76
2021/04/02 00:32:48;;;;;;;45.25;28.75;;;15.30;99.90;;;15.19;81.19;101485.63;4153454;28;20504;-76
2021/04/02 00:34:49;;;;;;;49.22;28.45;;;15.30;99.90;;;15.19;81.27;101488.28;4153112;28;20137;-75
2021/04/02 00:36:50;;;;;;;50.88;28.90;;;15.30;99.90;;;15.23;81.19;101486.94;4153266;28;20034;-76
2021/04/02 00:38:52;;;;;;;48.85;29.15;;;15.30;99.90;;;15.13;81.49;101495.09;4153346;28;20511;-76
2021/04/02 00:41:23;;;;;;;56.40;30.00;;;15.30;99.90;;;15.00;81.77;101486.78;4153018;28;20469;-76
2021/04/02 00:43:29;;;;;;;50.13;30.45;;;15.20;99.90;;;14.96;81.77;101488.13;4144259;28;20450;-76
2021/04/02 00:45:31;;;;;;;47.35;29.55;;;15.20;99.90;;;14.93;82.12;101483.16;4151949;28;20042;-76
2021/04/02 00:47:32;;;;;;;57.17;30.92;;;15.10;99.90;;;14.98;82.29;101488.78;4151789;28;20033;-76
2021/04/02 00:49:32;;;;;;;43.30;27.45;;;15.10;99.90;;;14.89;82.64;101498.59;4152885;28;20041;-76
2021/04/02 00:51:35;;;;;;;48.70;31.00;;;15.10;99.90;;;14.93;82.76;101499.09;4153017;28;20026;-76
2021/04/02 00:53:42;;;;;;;53.42;32.30;;;15.10;99.90;;;14.78;83.08;101496.22;4153071;28;20025;-76
2021/04/02 00:55:44;;;;;;;54.42;32.47;;;15.10;99.90;;;14.89;83.02;101503.06;4152751;28;20033;-76
2021/04/02 00:57:45;;;;;;;56.63;33.72;;;15.00;99.90;;;14.87;83.32;101499.75;4152832;28;20052;-76
2021/04/02 00:59:46;;;;;;;55.20;33.58;;;15.10;99.90;;;14.82;83.39;101500.22;4153040;28;20034;-76
2021/04/02 01:01:47;;;;;;;43.92;28.17;;;15.00;99.90;;;14.78;82.99;101504.19;4152987;28;20547;-76
2021/04/02 01:03:48;;;;;;;57.75;32.85;;;15.00;99.90;;;14.80;83.35;101498.75;4152942;28;20022;-76
2021/04/02 01:05:52;;;;;;;65.03;36.13;;;15.00;99.90;;;14.71;84.32;101502.38;4152956;28;20026;-76
2021/04/02 01:08:07;;;;;;;62.00;37.83;;;15.00;99.90;;;14.61;84.59;101488.41;4152945;28;20473;-75
2021/04/02 01:10:13;;;;;;;53.67;32.90;;;15.00;99.90;;;14.64;83.73;101494.22;4152820;28;20115;-76
2021/04/02 01:12:14;;;;;;;64.15;38.03;;;15.00;99.90;;;14.60;84.95;101502.69;4152772;28;20025;-75
2021/04/02 01:14:15;;;;;;;67.10;38.08;;;14.90;99.90;;;14.60;85.24;101500.03;4152704;28;20044;-76
2021/04/02 01:16:28;;;;;;;69.22;38.38;;;14.80;99.90;;;14.52;85.58;101489.38;4152735;28;20029;-76
2021/04/02 01:18:40;;;;;;;67.57;39.03;;;14.80;99.90;;;14.55;85.64;101489.91;4152530;28;20057;-76
2021/04/02 01:20:44;;;;;;;64.13;36.88;;;14.70;99.90;;;14.57;85.37;101493.25;4152748;28;20591;-76
2021/04/02 01:22:46;;;;;;;74.03;40.57;;;14.70;99.90;;;14.51;85.86;101488.59;4151550;28;20072;-75
2021/04/02 01:25:23;;;;;;;68.70;37.97;;;14.70;99.90;;;14.33;86.25;101480.75;4151090;28;20037;-76
2021/04/02 01:27:39;;;;;;;64.10;38.90;;;14.80;99.90;;;14.39;86.38;101489.88;4152272;28;20417;-75
2021/04/02 01:29:54;;;;;;;66.75;41.85;;;14.70;99.90;;;14.39;86.36;101488.03;4152360;28;20037;-76
2021/04/02 01:32:01;;;;;;;81.03;42.97;;;14.70;99.90;;;14.35;86.49;101489.38;4152495;28;20053;-75
2021/04/02 01:34:02;;;;;;;69.30;43.80;;;14.70;99.90;;;14.38;86.73;101496.19;4152250;28;20038;-75
2021/04/02 01:36:04;;;;;;;71.30;42.78;;;14.70;99.90;;;14.31;87.21;101492.47;4151074;28;20081;-76
2021/04/02 01:38:20;;;;;;;77.43;43.17;;;14.70;99.90;;;14.30;86.99;101496.97;4152148;28;20083;-75
2021/04/02 01:40:25;;;;;;;71.88;43.45;;;14.60;99.90;;;14.31;86.80;101490.66;4152365;28;20033;-75
2021/04/02 01:42:27;;;;;;;70.05;42.13;;;14.60;99.90;;;14.25;87.16;101498.41;4151937;28;20117;-75
2021/04/02 01:44:31;;;;;;;76.00;44.30;;;14.60;99.90;;;14.13;87.58;101486.44;4151051;28;20508;-76
2021/04/02 01:46:34;;;;;;;79.13;43.67;;;14.50;99.90;;;14.16;87.72;101489.59;4152064;28;20413;-75
2021/04/02 01:48:38;;;;;;;72.38;42.40;;;14.50;99.90;;;14.15;87.53;101492.44;4150913;28;20101;-76
2021/04/02 01:50:44;;;;;;;78.22;43.45;;;14.50;99.90;;;13.98;88.67;101483.56;4152075;28;20057;-76
2021/04/02 01:52:47;;;;;;;72.13;43.15;;;14.50;99.90;;;13.92;89.32;101484.22;4151132;28;20535;-76
2021/04/02 01:54:48;;;;;;;81.70;46.67;;;14.40;99.90;;;13.86;88.45;101472.41;4150920;28;20038;-76
2021/04/02 01:56:53;;;;;;;72.28;42.63;;;14.30;99.90;;;13.95;88.86;101480.44;4150564;28;20029;-76
2021/04/02 01:58:57;;;;;;;73.53;43.97;;;14.30;99.90;;;13.78;89.05;101469.75;4150912;28;20434;-76
2021/04/02 02:01:01;;;;;;;75.55;43.20;;;14.30;99.90;;;13.80;89.86;101485.47;4150968;28;20025;-76
2021/04/02 02:03:03;;;;;;;84.70;44.88;;;14.20;99.90;;;13.77;89.91;101488.44;4152022;28;20041;-76
2021/04/02 02:05:08;;;;;;;80.28;46.70;;;14.20;99.90;;;13.68;90.07;101489.38;4134587;28;20533;-76
2021/04/02 02:07:09;;;;;;;70.35;42.60;;;14.10;99.90;;;13.68;89.73;101476.13;4151024;28;20030;-76
2021/04/02 02:09:15;;;;;;;79.82;45.22;;;14.10;99.90;;;13.66;90.07;101486.91;4150774;28;20036;-75
2021/04/02 02:11:19;;;;;;;75.50;43.42;;;14.10;99.90;;;13.67;89.56;101482.44;4150603;28;20037;-75
2021/04/02 02:13:22;;;;;;;73.88;43.47;;;14.00;99.90;;;13.56;89.95;101477.44;4150818;28;20034;-75
2021/04/02 02:15:24;;;;;;;74.97;44.47;;;14.00;99.90;;;13.62;89.64;101480.25;4151992;28;20044;-75
2021/04/02 02:17:26;;;;;;;77.93;45.00;;;14.00;99.90;;;13.54;89.89;101479.38;4150746;28;20541;-76
2021/04/02 02:19:33;;;;;;;75.38;45.05;;;14.00;99.90;;;13.58;89.91;101486.03;4150903;28;20029;-76
2021/04/02 02:21:34;;;;;;;78.57;42.38;;;14.00;99.90;;;13.50;90.52;101491.31;4151746;28;20026;-76
2021/04/02 02:23:36;;;;;;;75.07;44.63;;;13.90;99.90;;;13.50;89.83;101492.09;4150901;28;20038;-76
2021/04/02 02:25:37;;;;;;;72.45;41.35;;;13.80;99.90;;;13.50;89.27;101492.09;4152051;28;20030;-76
2021/04/02 02:27:39;;;;;;;79.43;42.15;;;13.70;99.90;;;13.37;89.88;101489.06;4150617;28;20083;-75
2021/04/02 02:29:41;;;;;;;70.03;40.28;;;13.80;99.90;;;13.31;89.80;101492.34;4150734;28;20548;-75
2021/04/02 02:31:42;;;;;;;80.70;42.60;;;13.70;99.90;;;13.20;90.33;101496.06;4150862;28;20038;-76
2021/04/02 02:33:43;;;;;;;73.75;42.33;;;13.60;99.90;;;13.27;89.76;101494.47;4151814;28;20041;-76
2021/04/02 02:35:44;;;;;;;78.72;41.90;;;13.60;99.90;;;13.20;89.91;101488.09;4152327;28;20061;-76
2021/04/02 02:37:47;;;;;;;72.05;38.47;;;13.60;99.90;;;13.25;89.56;101496.44;4155191;28;20038;-76
2021/04/02 02:39:48;;;;;;;75.88;41.28;;;13.50;99.90;;;13.17;89.63;101500.84;4155495;28;20106;-76
2021/04/02 02:41:49;;;;;;;71.55;39.33;;;13.50;99.90;;;13.15;89.60;101498.34;4155035;28;20029;-75
2021/04/02 02:43:50;;;;;;;70.60;39.25;;;13.50;99.90;;;13.12;89.58;101487.22;4155369;28;20034;-76
2021/04/02 02:45:51;;;;;;;72.22;38.35;;;13.50;99.90;;;13.00;89.59;101493.72;4155084;28;20030;-76
2021/04/02 02:47:52;;;;;;;77.25;40.75;;;13.40;99.90;;;12.70;90.72;101482.53;4155079;28;20058;-76
2021/04/02 02:49:53;;;;;;;80.32;39.78;;;13.30;99.90;;;12.77;90.95;101496.84;4155143;28;20018;-75
2021/04/02 02:51:57;;;;;;;69.82;39.72;;;13.30;99.90;;;12.78;90.74;101498.50;4155099;28;20030;-75
2021/04/02 02:54:05;;;;;;;67.43;36.90;;;13.20;99.90;;;12.73;91.58;101486.69;4153894;28;20036;-75
2021/04/02 02:56:08;;;;;;;72.07;38.72;;;13.20;99.90;;;12.67;90.84;101492.59;4153625;28;20280;-76
2021/04/02 02:58:11;;;;;;;63.95;36.83;;;13.10;99.90;;;12.49;91.33;101494.41;4153829;28;20030;-75
2021/04/02 03:00:19;;;;;;;70.55;36.72;;;13.10;99.90;;;12.53;91.55;101490.47;4153877;28;20026;-76
2021/04/02 03:02:21;;;;;;;64.43;36.63;;;13.00;99.90;;;12.37;92.01;101491.13;4154960;28;20030;-76
2021/04/02 03:04:25;;;;;;;68.72;36.47;;;13.00;99.90;;;12.40;91.63;101488.19;4153698;28;20033;-75
2021/04/02 03:06:27;;;;;;;67.13;36.08;;;12.90;99.90;;;12.37;91.92;101491.13;4155007;28;20443;-75
2021/04/02 03:08:38;;;;;;;73.68;39.03;;;12.80;99.90;;;12.26;92.45;101487.88;4153701;28;20033;-75
2021/04/02 03:10:40;;;;;;;68.45;35.25;;;12.80;99.90;;;12.25;92.46;101483.56;4154744;28;20116;-75
2021/04/02 03:12:42;;;;;;;73.05;37.25;;;12.80;99.90;;;12.17;92.38;101489.59;4153572;28;20026;-75
2021/04/02 03:14:45;;;;;;;70.10;38.67;;;12.70;99.90;;;12.06;92.74;101480.06;4153537;28;20030;-75
2021/04/02 03:16:52;;;;;;;73.67;37.63;;;12.70;99.90;;;12.14;92.26;101480.16;4153618;28;20477;-75
2021/04/02 03:18:57;;;;;;;71.70;36.28;;;12.60;99.90;;;12.09;92.14;101485.06;4153706;28;20105;-75
2021/04/02 03:20:59;;;;;;;70.22;36.97;;;12.60;99.90;;;12.04;92.94;101484.66;4153545;28;20305;-75
2021/04/02 03:23:01;;;;;;;73.97;37.28;;;12.60;99.90;;;11.98;92.84;101482.59;4154685;28;20389;-75
2021/04/02 03:25:12;;;;;;;66.95;35.67;;;12.60;99.90;;;12.04;92.70;101487.28;4154706;28;20110;-75
2021/04/02 03:27:13;;;;;;;71.80;36.40;;;12.50;99.90;;;12.03;92.58;101490.94;4154432;28;20076;-75
2021/04/02 03:29:16;;;;;;;66.72;35.35;;;12.50;99.90;;;11.88;93.53;101481.81;4153389;28;20511;-75
2021/04/02 03:31:18;;;;;;;69.00;37.15;;;12.40;99.90;;;11.91;93.03;101484.19;4153326;28;20033;-75
2021/04/02 03:33:31;;;;;;;72.43;38.08;;;12.40;99.90;;;11.87;93.41;101485.44;4154613;28;20042;-75
2021/04/02 03:35:35;;;;;;;74.43;35.83;;;12.40;99.90;;;11.86;93.24;101475.00;4153149;28;20037;-75
2021/04/02 03:37:37;;;;;;;72.03;34.95;;;12.30;99.90;;;11.90;92.67;101474.56;4153373;28;20116;-75
2021/04/02 03:39:44;;;;;;;68.38;35.58;;;12.30;99.90;;;11.88;92.43;101481.81;4153131;28;20113;-75
2021/04/02 03:41:46;;;;;;;69.60;37.42;;;12.40;99.90;;;11.78;92.69;101469.63;4154287;28;20436;-76
2021/04/02 03:43:49;;;;;;;64.13;36.55;;;12.30;99.90;;;11.75;93.43;101483.13;4153252;28;20105;-76
2021/04/02 03:45:50;;;;;;;62.42;34.28;;;12.30;99.90;;;11.78;92.87;101478.38;4152959;28;20029;-75
2021/04/02 03:47:54;;;;;;;63.33;34.95;;;12.30;99.90;;;11.66;93.32;101469.78;4152865;28;20034;-75
2021/04/02 03:49:56;;;;;;;64.78;34.92;;;12.20;99.90;;;11.61;93.03;101465.91;4153135;28;20042;-75
2021/04/02 03:52:05;;;;;;;61.63;35.85;;;12.20;99.90;;;11.58;93.62;101477.59;4153095;28;20026;-75
2021/04/02 03:54:08;;;;;;;68.60;33.33;;;12.20;99.90;;;11.79;92.66;101482.69;4154052;28;20164;-75
2021/04/02 03:56:14;;;;;;;62.45;34.53;;;12.20;99.90;;;11.79;92.59;101485.34;4153963;28;20025;-75
2021/04/02 03:58:17;;;;;;;69.47;36.95;;;12.20;99.90;;;11.77;92.44;101481.19;4154087;28;20096;-75
2021/04/02 04:00:52;;;;;;;79.47;34.60;;;12.20;99.90;;;11.59;92.75;101487.19;4154151;28;20080;-75
2021/04/02 04:02:55;;;;;;;61.85;32.15;;;12.10;99.90;;;11.54;93.78;101499.16;4154098;28;20077;-75
2021/04/02 04:04:59;;;;;;;71.28;33.38;;;12.10;99.90;;;11.59;93.47;101491.63;4154131;28;20061;-75
2021/04/02 04:07:04;;;;;;;65.85;34.58;;;12.10;99.90;;;11.41;93.77;101485.44;4152673;28;20030;-75
2021/04/02 04:09:14;;;;;;;72.25;32.40;;;12.10;99.90;;;11.49;93.36;101501.41;4152954;28;20468;-75
2021/04/02 04:11:17;;;;;;;66.55;32.97;;;12.10;99.90;;;11.52;93.38;101495.84;4153721;28;20563;-75
2021/04/02 04:13:22;;;;;;;61.55;32.03;;;12.00;99.90;;;11.54;92.63;101505.28;4152625;28;20025;-75
2021/04/02 04:15:25;;;;;;;62.38;33.92;;;12.00;99.90;;;11.45;93.35;101492.94;4136408;28;20097;-75
2021/04/02 04:17:27;;;;;;;57.33;30.55;;;12.00;99.90;;;11.41;93.11;101496.81;4153823;28;20022;-75
2021/04/02 04:19:30;;;;;;;57.90;31.63;;;11.90;99.90;;;11.47;93.27;101490.13;4153794;28;20030;-75
2021/04/02 04:21:44;;;;;;;58.92;32.55;;;11.90;99.90;;;11.50;92.08;101498.63;4153742;28;20555;-76
2021/04/02 04:23:46;;;;;;;61.42;31.65;;;11.90;99.90;;;11.47;93.25;101504.19;4153775;28;20034;-75
2021/04/02 04:26:29;;;;;;;55.75;30.58;;;11.90;99.90;;;11.53;92.23;101508.06;4152267;28;20029;-75
2021/04/02 04:28:31;;;;;;;55.38;31.67;;;11.90;99.90;;;11.52;91.87;101506.41;4153680;28;20030;-75
2021/04/02 04:30:32;;;;;;;61.05;30.67;;;11.90;99.90;;;11.57;91.23;101517.38;4153550;28;20022;-75
2021/04/02 04:32:34;;;;;;;66.85;30.92;;;11.90;99.90;;;11.45;92.09;101507.94;4152472;28;20033;-75
2021/04/02 04:34:37;;;;;;;60.22;30.38;;;11.90;99.90;;;11.42;92.02;101505.59;4135862;28;20026;-75
2021/04/02 04:36:41;;;;;;;56.22;29.92;;;11.90;99.90;;;11.30;92.66;101512.84;4153618;28;20061;-75
2021/04/02 04:38:43;;;;;;;58.95;29.92;;;11.90;99.90;;;11.29;92.68;101513.00;4152313;28;20025;-75
2021/04/02 04:40:47;;;;;;;55.85;29.00;;;11.80;99.90;;;11.33;92.75;101515.22;4153192;28;20064;-75
2021/04/02 04:42:49;;;;;;;58.20;28.25;;;11.80;99.90;;;11.24;92.40;101513.41;4153321;28;20441;-76
2021/04/02 04:44:54;;;;;;;59.60;29.77;;;11.80;99.90;;;11.28;92.25;101513.97;4153622;28;20057;-75
2021/04/02 04:46:55;;;;;;;58.53;30.98;;;11.80;99.90;;;11.09;93.13;101505.09;4153324;28;20033;-75
2021/04/02 04:48:56;;;;;;;58.35;30.20;;;11.70;99.90;;;11.19;92.75;101515.66;4152156;28;20136;-75
2021/04/02 04:50:58;;;;;;;60.58;29.58;;;11.70;99.90;;;10.96;93.27;101512.47;4153095;28;20056;-75
2021/04/02 04:53:11;;;;;;;56.35;28.45;;;11.60;99.90;;;10.81;93.51;101482.19;4153258;28;20026;-75
2021/04/02 04:55:15;;;;;;;56.10;30.27;;;11.60;99.90;;;10.82;93.62;101510.25;4152020;28;20045;-75
2021/04/02 04:57:16;;;;;;;63.67;31.95;;;11.60;99.90;;;10.79;93.99;101521.06;4135486;28;20030;-75
2021/04/02 04:59:19;;;;;;;53.85;29.02;;;11.50;99.90;;;10.86;94.13;101524.84;4151454;28;20030;-75
2021/04/02 05:01:22;;;;;;;59.90;30.38;;;11.50;99.90;;;10.80;94.30;101520.13;4151948;28;20030;-75
2021/04/02 05:03:26;;;;;;;62.20;30.58;;;11.40;99.90;;;10.87;93.63;101526.50;4151995;28;20025;-75
2021/04/02 05:05:35;;;;;;;61.17;32.35;;;11.40;99.90;;;10.87;93.69;101518.56;4151778;28;20026;-75
2021/04/02 05:07:38;;;;;;;60.33;30.65;;;11.40;99.90;;;10.86;93.58;101535.41;4151956;28;20034;-75
2021/04/02 05:09:42;;;;;;;58.88;30.08;;;11.40;99.90;;;10.91;93.35;101529.69;4151785;28;20053;-75
2021/04/02 05:11:45;;;;;;;67.65;31.17;;;11.40;99.90;;;10.87;93.33;101541.53;4151637;28;20030;-75
2021/04/02 05:13:49;;;;;;;58.03;29.90;;;11.40;99.90;;;10.78;93.46;101532.59;4152957;28;20034;-75
2021/04/02 05:15:52;;;;;;;51.85;29.10;;;11.40;99.90;;;10.77;93.20;101527.47;4151684;28;20116;-75
2021/04/02 05:17:54;;;;;;;58.65;29.90;;;11.30;99.90;;;10.67;93.61;101535.38;4151763;28;20038;-75
2021/04/02 05:19:56;;;;;;;52.17;28.20;;;11.30;99.90;;;10.62;93.77;101528.84;4151469;28;20072;-75
2021/04/02 05:21:57;;;;;;;60.22;28.08;;;11.30;99.90;;;10.59;94.19;101529.97;4151630;28;20033;-75
2021/04/02 05:23:58;;;;;;;56.70;29.25;;;11.20;99.90;;;10.45;94.87;101533.00;4152813;28;20493;-75
2021/04/02 05:25:59;;;;;;;58.33;28.48;;;11.20;99.90;;;10.44;94.32;101533.94;4152521;28;20093;-75
2021/04/02 05:28:00;;;;;;;50.63;27.00;;;11.10;99.90;;;10.42;94.32;101546.44;4151565;28;20410;-75
2021/04/02 05:30:01;;;;;;;55.70;27.77;;;11.10;99.90;;;10.45;94.75;101546.19;4152676;28;20508;-75
2021/04/02 05:32:04;;;;;;;55.35;28.77;;;11.10;99.90;;;10.45;94.23;101543.53;4151493;28;20029;-75
2021/04/02 05:34:05;;;;;;;53.83;27.80;;;11.10;99.90;;;10.39;93.89;101536.97;4151336;28;20069;-76
2021/04/02 05:36:07;;;;;;;54.90;26.30;;;11.10;99.90;;;10.54;93.49;101548.00;4152532;28;20033;-75
2021/04/02 05:38:08;;;;;;;50.92;27.25;;;11.00;99.90;;;10.32;93.56;101532.41;4152631;28;20516;-76
2021/04/02 05:40:09;;;;;;;49.70;26.85;;;11.10;99.90;;;10.38;94.03;101552.97;4152636;28;20026;-75
2021/04/02 05:42:16;;;;;;;52.70;26.02;;;11.00;99.90;;;10.43;93.65;101553.38;4152289;28;20034;-75
2021/04/02 05:44:28;;;;;;;52.13;29.48;;;11.00;99.90;;;10.42;93.69;101554.38;4151264;28;20026;-75
2021/04/02 05:46:31;;;;;;;53.70;27.27;;;11.00;99.90;;;10.50;93.78;101562.44;4152579;28;20398;-75
2021/04/02 05:48:33;;;;;;;50.57;27.23;;;11.00;99.90;;;10.40;93.43;101562.41;4152373;28;20042;-75
2021/04/02 05:50:37;;;;;;;53.38;27.83;;;11.00;99.90;;;10.44;92.61;101542.72;4151209;28;20272;-76
2021/04/02 05:52:40;;;;;;;53.78;26.58;;;11.00;99.90;;;10.38;93.44;101564.34;4150059;28;20030;-77
2021/04/02 05:54:51;;;;;;;48.08;26.73;;;11.00;99.90;;;10.40;93.60;101556.28;4152260;28;20032;-78
2021/04/02 05:56:52;;;;;;;49.78;26.58;;;11.00;99.90;;;10.52;92.35;101555.19;4150636;28;20420;-77
2021/04/02 05:58:54;;;;;;;49.25;26.27;;;11.00;99.90;;;10.48;92.19;101567.81;4152064;28;20528;-79
2021/04/02 06:00:56;;;;;;;46.38;25.63;;;11.00;99.90;;;10.40;93.40;101566.84;4152371;28;20064;-79
2021/04/02 06:02:58;;;;;;;54.15;26.33;;;11.00;99.90;;;10.39;92.31;101570.47;4152350;28;20042;-79
2021/04/02 06:05:02;;;;;;;50.92;26.83;;;11.00;99.90;;;10.36;93.21;101568.91;4152357;28;20038;-79
2021/04/02 06:07:03;;;;;;;46.70;25.85;;;11.00;99.90;;;10.39;92.67;101573.91;4152308;28;20393;-78
2021/04/02 06:09:05;;;;;;;50.92;25.00;;;11.00;99.90;;;10.40;92.66;101580.84;4152047;28;20124;-78
2021/04/02 06:11:06;;;;;;;47.50;25.13;;;11.00;99.90;;;10.46;92.62;101580.31;4149839;28;20030;-78
2021/04/02 06:13:07;;;;;;;49.15;24.55;;;11.00;99.90;;;10.46;92.46;101585.59;4152198;28;20100;-78
2021/04/02 06:15:09;;;;;;;50.97;26.88;;;11.00;99.90;;;10.56;91.45;101585.63;4152000;28;20057;-78
2021/04/02 06:17:10;;;;;;;49.95;26.27;;;11.00;99.90;;;10.44;92.11;101594.63;4152312;28;20045;-78
2021/04/02 06:19:11;;;;;;;47.22;24.27;;;11.10;99.90;;;10.55;91.33;101589.22;4151715;28;20053;-78
2021/04/02 06:21:14;;;;;;;47.80;24.80;;;11.10;99.90;;;10.53;91.24;101599.94;4150936;28;20412;-79
2021/04/02 06:23:27;;;;;;;40.95;23.55;;;11.20;99.90;;;10.55;91.83;101595.34;4151790;28;20021;-79
2021/04/02 06:25:27;;;;;;;52.50;25.42;;;11.20;99.90;;;10.46;90.96;101600.59;4150952;28;20045;-77
2021/04/02 06:27:29;;;;;;;47.55;24.75;;;11.20;99.90;;;10.54;91.46;101606.84;4152224;28;20025;-77
2021/04/02 06:29:35;;;;;;;47.67;23.27;;;11.20;99.90;;;10.49;91.25;101610.88;4151826;28;20104;-77
2021/04/02 06:31:42;;;;;;;46.53;25.38;;;11.20;99.90;;;10.42;91.82;101615.03;4152041;28;20029;-76
2021/04/02 06:33:54;;;;;;;48.70;25.27;;;11.20;99.90;;;10.43;91.93;101609.59;4151827;28;20030;-77
2021/04/02 06:35:55;;;;;;;49.40;25.25;;;11.20;99.90;;;10.55;90.76;101615.59;4151752;28;20030;-76
2021/04/02 06:37:56;;;;;;;46.13;24.85;;;11.20;99.90;;;10.24;92.60;101606.06;4151658;28;20034;-76
2021/04/02 06:39:57;;;;;;;45.35;24.35;;;11.20;99.90;;;10.29;92.36;101603.88;4151614;28;20030;-76
2021/04/02 06:42:01;;;;;;;44.53;25.33;;;11.20;99.90;;;10.33;92.33;101613.19;4151272;28;20440;-76
2021/04/02 06:44:05;;;;;;;41.55;22.80;;;11.20;99.90;;;10.42;91.64;101605.28;4151714;28;20044;-76
2021/04/02 06:46:09;;;;;;;51.20;25.45;;;11.20;99.90;;;10.31;92.20;101612.47;4151282;28;20041;-76
2021/04/02 06:48:14;;;;;;;41.63;23.98;;;11.20;99.90;;;10.43;91.28;101614.88;4150079;28;20042;-76
2021/04/02 06:50:26;;;;;;;48.70;23.67;;;11.30;99.90;;;10.59;92.01;101613.53;4151991;28;20145;-76
2021/04/02 06:52:30;;;;;;;44.97;24.23;;;11.30;99.90;;;10.61;90.85;101612.44;4150622;28;20103;-76
2021/04/02 06:54:31;;;;;;;40.73;22.10;;;11.30;99.90;;;10.68;90.05;101628.56;4134465;28;20438;-76
2021/04/02 06:56:35;;;;;;;42.08;24.40;;;11.50;99.90;;;10.88;89.60;101617.91;4150094;28;20265;-76
2021/04/02 06:58:39;;;;;;;43.03;23.88;;;11.50;99.90;;;10.71;89.66;101617.75;4151858;28;20046;-76
2021/04/02 07:00:40;;;;;;;;;;;11.60;99.90;;;10.70;89.52;101619.53;4150777;28;20142;-76
2021/04/02 07:02:44;;;;;;;46.53;22.83;;;11.60;99.90;;;10.66;89.43;101620.78;4151776;28;19933;-76
2021/04/02 07:04:48;;;;;;;43.08;24.27;;;11.60;99.90;;;10.73;89.35;101621.91;4150576;28;20026;-76
2021/04/02 07:06:52;;;;;;;37.50;23.45;;;11.70;99.90;;;10.69;89.61;101620.53;4150487;28;20034;-76
2021/04/02 07:08:54;;;;;;;50.78;25.05;;;11.70;99.90;;;10.66;89.75;101630.50;4151957;28;20037;-76
2021/04/02 07:10:59;;;;;;;41.40;22.27;;;11.70;99.90;;;10.69;89.71;101640.78;4150169;28;20030;-76
2021/04/02 07:13:07;;;;;;;43.55;23.33;;;11.70;99.90;;;10.66;89.63;101636.63;4151594;28;20026;-76
2021/04/02 07:15:09;;;;;;;39.85;22.23;;;11.70;99.90;;;10.69;89.36;101636.38;4134670;28;20038;-76
2021/04/02 07:17:11;;;;;;;46.22;23.60;;;11.70;99.90;;;10.68;89.50;101639.97;4151745;28;20018;-76
2021/04/02 07:19:13;;;;;;;42.92;21.80;;;11.70;99.90;;;10.54;89.65;101638.50;4150502;28;20053;-76
2021/04/02 07:21:18;;;;;;;39.47;20.73;;;11.70;99.90;;;10.70;88.16;101623.97;4134041;28;20022;-76
2021/04/02 07:23:19;;;;;;;47.33;23.52;;;11.70;99.90;;;10.89;87.72;101638.06;4154164;28;20030;-76
2021/04/02 07:25:21;;;;;;;42.40;21.88;;;11.80;99.90;;;10.77;88.31;101639.16;4154502;28;20041;-76
2021/04/02 07:27:22;;;;;;;38.53;20.42;;;11.90;99.90;;;10.97;87.08;101640.00;4154475;28;20094;-76
2021/04/02 07:29:24;;;;;;;41.13;21.23;;;11.90;99.90;;;10.80;88.16;101641.53;4153483;28;20412;-76
2021/04/02 07:31:26;;;;;;;36.30;20.25;;;12.00;99.90;;;11.09;87.49;101639.75;4153462;28;20026;-76
2021/04/02 07:33:28;;;;;;;41.08;20.35;;;12.00;99.90;;;11.08;87.17;101637.25;4153297;28;20026;-76
2021/04/02 07:35:30;;;;;;;37.65;21.90;;;12.10;99.90;;;10.99;85.97;101643.38;4154476;28;20370;-76
2021/04/02 07:37:38;;;;;;;37.75;21.48;;;12.20;99.90;;;11.06;87.32;101637.38;4154325;28;20029;-76
2021/04/02 07:39:39;;;;;;;38.00;19.95;;;12.20;99.90;;;10.95;86.96;101652.53;4154361;28;20108;-76
2021/04/02 07:41:47;;;;;;;39.45;19.58;;;12.20;99.90;;;10.78;87.17;101654.00;4153002;28;20030;-76
2021/04/02 07:43:56;;;;;;;34.22;19.75;;;12.20;99.90;;;10.90;86.96;101647.63;4154466;28;20388;-75
2021/04/02 07:46:18;;;;;;;34.65;20.33;;;12.10;99.90;;;11.22;86.40;101642.13;4154308;28;20393;-76
2021/04/02 07:48:26;;;;;;;40.38;19.15;;;12.20;99.90;;;11.27;84.89;101647.00;4154104;28;20061;-76
2021/04/02 07:50:40;;;;;;;32.05;20.80;;;12.30;99.90;;;10.88;86.18;101657.50;4153179;28;20030;-76
2021/04/02 07:52:43;;;;;;;28.00;20.38;;;12.30;99.90;;;11.17;85.19;101640.88;4154065;28;20041;-76
2021/04/02 07:54:45;;;;;;;32.95;19.60;;;12.30;99.90;;;10.93;86.19;101650.00;4153928;28;20037;-76
2021/04/02 07:56:51;;;;;;;34.00;19.17;;;12.30;99.90;;;11.25;85.55;101659.50;4153817;28;20033;-76
2021/04/02 07:58:53;;;;;;;38.83;18.65;;;12.40;99.90;;;11.26;84.77;101654.06;4152847;28;20034;-76
2021/04/02 08:00:58;;;;;;;41.28;20.30;;;12.40;99.90;;;11.47;84.27;101664.50;4154172;28;20045;-76
2021/04/02 08:03:17;;;;;;;33.25;18.73;;;12.50;99.90;;;11.59;84.07;101663.38;4153939;28;20068;-76
2021/04/02 08:05:19;;;;;;;34.10;18.75;;;12.60;99.90;;;11.41;84.00;101650.03;4153901;28;20074;-76
2021/04/02 08:07:40;;;;;;;34.17;18.02;;;12.70;99.90;;;11.48;83.56;101655.63;4154006;28;20076;-75
2021/04/02 08:09:51;;;;;;;34.35;17.73;;;12.70;99.90;;;11.31;83.82;101659.81;4153775;28;20026;-76
2021/04/02 08:11:57;;;;;;;28.52;16.70;;;12.70;99.90;;;11.59;83.07;101661.59;4153238;28;20029;-76
2021/04/02 08:14:09;;;;;;;33.55;18.50;;;12.80;99.90;;;11.49;83.60;101667.88;4153849;28;20041;-76
2021/04/02 08:16:48;;;;;;;33.13;17.58;;;12.80;99.90;;;11.45;83.78;101671.75;4153734;28;20551;-77
2021/04/02 08:19:12;;;;;;;33.53;17.52;;;12.80;99.90;;;11.50;83.17;101672.16;4153531;28;20025;-76
2021/04/02 08:21:13;;;;;;;31.55;17.52;;;12.90;99.90;;;11.77;82.12;101674.94;4152517;28;20034;-76
2021/04/02 08:23:15;;;;;;;32.60;18.42;;;13.00;99.90;;;11.90;82.05;101672.03;4153483;28;20021;-76
2021/04/02 08:25:22;;;;;;;29.63;17.15;;;13.00;99.90;;;11.72;81.24;101668.44;4153640;28;20045;-76
2021/04/02 08:27:23;;;;;;;31.30;18.35;;;13.00;99.90;;;11.94;81.26;101668.97;4153524;28;20389;-76
2021/04/02 08:29:27;;;;;;;33.22;17.58;;;13.10;99.90;;;11.90;81.10;101678.16;4152380;28;20034;-76